Delta Poseidon — SVBF6 — position and weather

sailwx.info

Track history (hours):
 
Tides and Currents Weather Stations Pressure Air Temp Water Temp Dewpoint Dewpoint Depression Visibility Wind Speed Wind Dir Waves Ship Positions

Delta Poseidon

Last reported at 2017-Apr-24 23:59 UTC. Time now 2017-Apr-25 00:57 UTC.
Position N 36°53' E 000°38'.

Length 274 m; draft 16 m.

Type: Tanker. MMSI: 241086000.

Date/timePositionNaut miles runAvg speedWind from/ knotsBaromVisibWave heightAir tempDewpointWater temp
2017-Apr-24 23:59N 36°53' E 000°38'1112.0
2017-Apr-24 23:05N 36°55' E 000°51'311.9
2017-Apr-24 22:52N 36°55' E 000°55'611.9
2017-Apr-24 22:20N 36°56' E 001°02'411.8
2017-Apr-24 22:00N 36°57' E 001°07'712.0
2017-Apr-24 21:25N 36°58' E 001°16'512.2
2017-Apr-24 21:01N 36°59' E 001°22'612.0
2017-Apr-24 20:30N 37°01' E 001°29'612.0
2017-Apr-24 20:00N 37°02' E 001°37'611.9
2017-Apr-24 19:30N 37°03' E 001°44'611.9
2017-Apr-24 19:00N 37°04' E 001°51'611.9
2017-Apr-24 18:30N 37°05' E 001°59'612.2
2017-Apr-24 18:01N 37°06' E 002°06'612.4
2017-Apr-24 17:29N 37°07' E 002°14'712.3
2017-Apr-24 16:56N 37°09' E 002°22'1212.4
2017-Apr-24 15:59N 37°11' E 002°37'612.4
2017-Apr-24 15:30N 37°12' E 002°44'612.3
2017-Apr-24 15:00N 37°13' E 002°52'612.2
2017-Apr-24 14:30N 37°15' E 002°59'1212.2
2017-Apr-24 13:31N 37°17' E 003°14'612.3
2017-Apr-24 13:00N 37°18' E 003°22'612.3
2017-Apr-24 12:30N 37°19' E 003°30'612.2
2017-Apr-24 12:00N 37°20' E 003°37'612.2
2017-Apr-24 11:29N 37°21' E 003°45'612.2
2017-Apr-24 11:00N 37°23' E 003°52'612.1
2017-Apr-24 10:30N 37°24' E 003°60'1412.0
2017-Apr-24 09:20N 37°27' E 004°17'511.8
2017-Apr-24 08:57N 37°28' E 004°22'512.1
2017-Apr-24 08:31N 37°29' E 004°29'714.0
2017-Apr-24 08:00N 37°30' E 004°38'714.7
2017-Apr-24 07:30N 37°31' E 004°47'714.3
2017-Apr-24 07:00N 37°33' E 004°56'713.6
2017-Apr-24 06:30N 37°34' E 005°04'612.6
2017-Apr-24 06:00N 37°35' E 005°12'612.3
2017-Apr-24 05:30N 37°35' E 005°20'612.4
2017-Apr-24 05:00N 37°35' E 005°28'612.4
2017-Apr-24 04:30N 37°35' E 005°35'612.5
2017-Apr-24 04:00N 37°36' E 005°43'612.4
2017-Apr-24 03:30N 37°36' E 005°51'612.3
2017-Apr-24 02:59N 37°36' E 005°59'712.2
2017-Apr-24 02:25N 37°36' E 006°08'512.4
2017-Apr-24 02:00N 37°36' E 006°14'612.2
2017-Apr-24 01:30N 37°36' E 006°22'612.1
2017-Apr-24 01:00N 37°36' E 006°30'612.0
2017-Apr-24 00:30N 37°36' E 006°37'712.4
2017-Apr-23 23:59N 37°36' E 006°45'612.4
2017-Apr-23 23:30N 37°36' E 006°53'712.2
2017-Apr-23 22:57N 37°36' E 007°01'512.2
2017-Apr-23 22:30N 37°36' E 007°08'2612.3
2017-Apr-23 20:23N 37°37' E 007°41'1512.6
2017-Apr-23 19:11N 37°37' E 008°00'212.9
2017-Apr-23 19:00N 37°37' E 008°03'612.7
2017-Apr-23 18:30N 37°37' E 008°11'612.2
2017-Apr-23 18:00N 37°37' E 008°19'612.2
2017-Apr-23 17:30N 37°37' E 008°27'612.1
2017-Apr-23 17:00N 37°38' E 008°34'612.1
2017-Apr-23 16:31N 37°38' E 008°42'612.2
2017-Apr-23 16:00N 37°38' E 008°50'612.1
2017-Apr-23 15:30N 37°38' E 008°57'612.2
2017-Apr-23 15:00N 37°38' E 009°05'1212.2
2017-Apr-23 14:00N 37°38' E 009°21'612.1
2017-Apr-23 13:29N 37°39' E 009°28'612.3
2017-Apr-23 12:59N 37°39' E 009°36'21512.2
2017-Apr-22 19:20N 36°35' E 013°54'412.4
2017-Apr-22 19:00N 36°34' E 013°59'612.2
2017-Apr-22 18:30N 36°32' E 014°06'612.1
2017-Apr-22 18:01N 36°30' E 014°13'612.0
2017-Apr-22 17:31N 36°28' E 014°20'612.0
2017-Apr-22 17:00N 36°27' E 014°27'612.2
2017-Apr-22 16:30N 36°25' E 014°35'612.3
2017-Apr-22 16:00N 36°25' E 014°42'612.2
2017-Apr-22 15:30N 36°25' E 014°50'44510.8
2017-Apr-20 22:25N 37°13' E 024°02'511.6
2017-Apr-20 21:59N 37°17' E 024°06'2611.6
2017-Apr-20 19:41N 37°37' E 024°28'212.4
2017-Apr-20 19:30N 37°39' E 024°29'612.8
2017-Apr-20 19:00N 37°45' E 024°32'612.7
2017-Apr-20 18:30N 37°52' E 024°34'612.1
2017-Apr-20 18:00N 37°57' E 024°37'254 7.2
2017-Apr-19 06:33N 40°53' E 028°34'112.7
2017-Apr-19 06:28N 40°53' E 028°35'912.3
2017-Apr-19 05:43N 40°55' E 028°47'412.3
2017-Apr-19 05:22N 40°55' E 028°53'512.0
2017-Apr-19 04:59N 40°58' E 028°58'  
Track history (hours):
 
Tides and Currents Weather Stations Pressure Air Temp Water Temp Dewpoint Dewpoint Depression Visibility Wind Speed Wind Dir Waves Ship Positions

Delta Poseidon

Last reported at 2017-Apr-24 23:59 UTC. Time now 2017-Apr-25 00:57 UTC.
Position N 36°53' E 000°38'.

Length 274 m; draft 16 m.

Type: Tanker. MMSI: 241086000.

Date/timePositionNaut miles runAvg speedWind from/ knotsBaromVisibWave heightAir tempDewpointWater temp
2017-Apr-24 23:59N 36°53' E 000°38'1112.0
2017-Apr-24 23:05N 36°55' E 000°51'311.9
2017-Apr-24 22:52N 36°55' E 000°55'611.9
2017-Apr-24 22:20N 36°56' E 001°02'411.8
2017-Apr-24 22:00N 36°57' E 001°07'712.0
2017-Apr-24 21:25N 36°58' E 001°16'512.2
2017-Apr-24 21:01N 36°59' E 001°22'612.0
2017-Apr-24 20:30N 37°01' E 001°29'612.0
2017-Apr-24 20:00N 37°02' E 001°37'611.9
2017-Apr-24 19:30N 37°03' E 001°44'611.9
2017-Apr-24 19:00N 37°04' E 001°51'611.9
2017-Apr-24 18:30N 37°05' E 001°59'612.2
2017-Apr-24 18:01N 37°06' E 002°06'612.4
2017-Apr-24 17:29N 37°07' E 002°14'712.3
2017-Apr-24 16:56N 37°09' E 002°22'1212.4
2017-Apr-24 15:59N 37°11' E 002°37'612.4
2017-Apr-24 15:30N 37°12' E 002°44'612.3
2017-Apr-24 15:00N 37°13' E 002°52'612.2
2017-Apr-24 14:30N 37°15' E 002°59'1212.2
2017-Apr-24 13:31N 37°17' E 003°14'612.3
2017-Apr-24 13:00N 37°18' E 003°22'612.3
2017-Apr-24 12:30N 37°19' E 003°30'612.2
2017-Apr-24 12:00N 37°20' E 003°37'612.2
2017-Apr-24 11:29N 37°21' E 003°45'612.2
2017-Apr-24 11:00N 37°23' E 003°52'612.1
2017-Apr-24 10:30N 37°24' E 003°60'1412.0
2017-Apr-24 09:20N 37°27' E 004°17'511.8
2017-Apr-24 08:57N 37°28' E 004°22'512.1
2017-Apr-24 08:31N 37°29' E 004°29'714.0
2017-Apr-24 08:00N 37°30' E 004°38'714.7
2017-Apr-24 07:30N 37°31' E 004°47'714.3
2017-Apr-24 07:00N 37°33' E 004°56'713.6
2017-Apr-24 06:30N 37°34' E 005°04'612.6
2017-Apr-24 06:00N 37°35' E 005°12'612.3
2017-Apr-24 05:30N 37°35' E 005°20'612.4
2017-Apr-24 05:00N 37°35' E 005°28'612.4
2017-Apr-24 04:30N 37°35' E 005°35'612.5
2017-Apr-24 04:00N 37°36' E 005°43'612.4
2017-Apr-24 03:30N 37°36' E 005°51'612.3
2017-Apr-24 02:59N 37°36' E 005°59'712.2
2017-Apr-24 02:25N 37°36' E 006°08'512.4
2017-Apr-24 02:00N 37°36' E 006°14'612.2
2017-Apr-24 01:30N 37°36' E 006°22'612.1
2017-Apr-24 01:00N 37°36' E 006°30'612.0
2017-Apr-24 00:30N 37°36' E 006°37'712.4
2017-Apr-23 23:59N 37°36' E 006°45'612.4
2017-Apr-23 23:30N 37°36' E 006°53'712.2
2017-Apr-23 22:57N 37°36' E 007°01'512.2
2017-Apr-23 22:30N 37°36' E 007°08'2612.3
2017-Apr-23 20:23N 37°37' E 007°41'1512.6
2017-Apr-23 19:11N 37°37' E 008°00'212.9
2017-Apr-23 19:00N 37°37' E 008°03'612.7
2017-Apr-23 18:30N 37°37' E 008°11'612.2
2017-Apr-23 18:00N 37°37' E 008°19'612.2
2017-Apr-23 17:30N 37°37' E 008°27'612.1
2017-Apr-23 17:00N 37°38' E 008°34'612.1
2017-Apr-23 16:31N 37°38' E 008°42'612.2
2017-Apr-23 16:00N 37°38' E 008°50'612.1
2017-Apr-23 15:30N 37°38' E 008°57'612.2
2017-Apr-23 15:00N 37°38' E 009°05'1212.2
2017-Apr-23 14:00N 37°38' E 009°21'612.1
2017-Apr-23 13:29N 37°39' E 009°28'612.3
2017-Apr-23 12:59N 37°39' E 009°36'21512.2
2017-Apr-22 19:20N 36°35' E 013°54'412.4
2017-Apr-22 19:00N 36°34' E 013°59'612.2
2017-Apr-22 18:30N 36°32' E 014°06'612.1
2017-Apr-22 18:01N 36°30' E 014°13'612.0
2017-Apr-22 17:31N 36°28' E 014°20'612.0
2017-Apr-22 17:00N 36°27' E 014°27'612.2
2017-Apr-22 16:30N 36°25' E 014°35'612.3
2017-Apr-22 16:00N 36°25' E 014°42'612.2
2017-Apr-22 15:30N 36°25' E 014°50'44510.8
2017-Apr-20 22:25N 37°13' E 024°02'511.6
2017-Apr-20 21:59N 37°17' E 024°06'2611.6
2017-Apr-20 19:41N 37°37' E 024°28'212.4
2017-Apr-20 19:30N 37°39' E 024°29'612.8
2017-Apr-20 19:00N 37°45' E 024°32'612.7
2017-Apr-20 18:30N 37°52' E 024°34'612.1
2017-Apr-20 18:00N 37°57' E 024°37'254 7.2
2017-Apr-19 06:33N 40°53' E 028°34'112.7
2017-Apr-19 06:28N 40°53' E 028°35'912.3
2017-Apr-19 05:43N 40°55' E 028°47'412.3
2017-Apr-19 05:22N 40°55' E 028°53'512.0
2017-Apr-19 04:59N 40°58' E 028°58'  

Dump ship's entire track history